sensor_id;sensor_type;location;lat;lon;timestamp;temperature;humidity
981;DHT22;479;53.514;9.994;2023-04-24T00:02:01;12.60;99.90
981;DHT22;479;53.514;9.994;2023-04-24T00:04:29;12.60;99.90
981;DHT22;479;53.514;9.994;2023-04-24T00:06:57;12.60;99.90
981;DHT22;479;53.514;9.994;2023-04-24T00:09:25;12.60;99.90
981;DHT22;479;53.514;9.994;2023-04-24T00:11:52;12.60;99.90
981;DHT22;479;53.514;9.994;2023-04-24T00:14:20;12.60;99.90
981;DHT22;479;53.514;9.994;2023-04-24T00:16:49;12.60;99.90
981;DHT22;479;53.514;9.994;2023-04-24T00:19:17;12.60;99.90
981;DHT22;479;53.514;9.994;2023-04-24T00:21:47;12.60;99.90
981;DHT22;479;53.514;9.994;2023-04-24T00:24:15;12.50;99.90
981;DHT22;479;53.514;9.994;2023-04-24T00:26:42;12.50;99.90
981;DHT22;479;53.514;9.994;2023-04-24T00:29:09;12.50;99.90
981;DHT22;479;53.514;9.994;2023-04-24T00:31:36;12.40;99.90
981;DHT22;479;53.514;9.994;2023-04-24T00:34:04;12.40;99.90
981;DHT22;479;53.514;9.994;2023-04-24T00:36:32;12.30;99.90
981;DHT22;479;53.514;9.994;2023-04-24T00:38:59;12.30;99.90
981;DHT22;479;53.514;9.994;2023-04-24T00:41:26;12.30;99.90
981;DHT22;479;53.514;9.994;2023-04-24T00:43:53;12.20;99.90
981;DHT22;479;53.514;9.994;2023-04-24T00:46:21;12.20;99.90
981;DHT22;479;53.514;9.994;2023-04-24T00:48:48;12.20;99.90
981;DHT22;479;53.514;9.994;2023-04-24T00:51:16;12.10;99.90
981;DHT22;479;53.514;9.994;2023-04-24T00:53:43;12.10;99.90
981;DHT22;479;53.514;9.994;2023-04-24T00:56:10;12.10;99.90
981;DHT22;479;53.514;9.994;2023-04-24T00:58:38;12.10;99.90
981;DHT22;479;53.514;9.994;2023-04-24T01:01:06;12.10;99.90
981;DHT22;479;53.514;9.994;2023-04-24T01:03:34;12.10;99.90
981;DHT22;479;53.514;9.994;2023-04-24T01:06:03;12.10;99.90
981;DHT22;479;53.514;9.994;2023-04-24T01:08:33;12.00;99.90
981;DHT22;479;53.514;9.994;2023-04-24T01:11:03;12.10;99.90
981;DHT22;479;53.514;9.994;2023-04-24T01:13:32;12.00;99.90
981;DHT22;479;53.514;9.994;2023-04-24T01:15:59;12.00;99.90
981;DHT22;479;53.514;9.994;2023-04-24T01:18:27;12.00;99.90
981;DHT22;479;53.514;9.994;2023-04-24T01:20:57;12.00;99.90
981;DHT22;479;53.514;9.994;2023-04-24T01:23:26;12.00;99.90
981;DHT22;479;53.514;9.994;2023-04-24T01:25:53;12.00;99.90
981;DHT22;479;53.514;9.994;2023-04-24T01:28:20;12.00;99.90
981;DHT22;479;53.514;9.994;2023-04-24T01:30:47;12.00;99.90
981;DHT22;479;53.514;9.994;2023-04-24T01:33:14;12.00;99.90
981;DHT22;479;53.514;9.994;2023-04-24T01:35:42;12.00;99.90
981;DHT22;479;53.514;9.994;2023-04-24T01:38:09;12.00;99.90
981;DHT22;479;53.514;9.994;2023-04-24T01:40:37;12.10;99.90
981;DHT22;479;53.514;9.994;2023-04-24T01:43:05;12.10;99.90
981;DHT22;479;53.514;9.994;2023-04-24T01:45:32;12.10;99.90
981;DHT22;479;53.514;9.994;2023-04-24T01:47:58;12.10;99.90
981;DHT22;479;53.514;9.994;2023-04-24T01:50:28;12.10;99.90
981;DHT22;479;53.514;9.994;2023-04-24T01:52:54;12.00;99.90
981;DHT22;479;53.514;9.994;2023-04-24T01:55:22;12.00;99.90
981;DHT22;479;53.514;9.994;2023-04-24T01:57:52;12.00;99.90
981;DHT22;479;53.514;9.994;2023-04-24T02:00:21;12.00;99.90
981;DHT22;479;53.514;9.994;2023-04-24T02:02:48;12.00;99.90
981;DHT22;479;53.514;9.994;2023-04-24T02:05:14;11.90;99.90
981;DHT22;479;53.514;9.994;2023-04-24T02:07:41;11.80;99.90
981;DHT22;479;53.514;9.994;2023-04-24T02:10:09;11.80;99.90
981;DHT22;479;53.514;9.994;2023-04-24T02:12:41;11.80;99.90
981;DHT22;479;53.514;9.994;2023-04-24T02:15:10;11.70;99.90
981;DHT22;479;53.514;9.994;2023-04-24T02:17:38;11.80;99.90
981;DHT22;479;53.514;9.994;2023-04-24T02:20:06;11.70;99.90
981;DHT22;479;53.514;9.994;2023-04-24T02:22:33;11.70;99.90
981;DHT22;479;53.514;9.994;2023-04-24T02:25:02;11.70;99.90
981;DHT22;479;53.514;9.994;2023-04-24T02:27:31;11.70;99.90
981;DHT22;479;53.514;9.994;2023-04-24T02:29:58;11.70;99.90
981;DHT22;479;53.514;9.994;2023-04-24T02:32:26;11.60;99.90
981;DHT22;479;53.514;9.994;2023-04-24T02:34:53;11.60;99.90
981;DHT22;479;53.514;9.994;2023-04-24T02:37:20;11.60;99.90
981;DHT22;479;53.514;9.994;2023-04-24T02:39:47;11.50;99.90
981;DHT22;479;53.514;9.994;2023-04-24T02:42:14;11.50;99.90
981;DHT22;479;53.514;9.994;2023-04-24T02:44:41;11.50;99.90
981;DHT22;479;53.514;9.994;2023-04-24T02:47:08;11.50;99.90
981;DHT22;479;53.514;9.994;2023-04-24T02:49:36;11.50;99.90
981;DHT22;479;53.514;9.994;2023-04-24T02:52:03;11.50;99.90
981;DHT22;479;53.514;9.994;2023-04-24T02:54:30;11.50;99.90
981;DHT22;479;53.514;9.994;2023-04-24T02:56:57;11.50;99.90
981;DHT22;479;53.514;9.994;2023-04-24T02:59:24;11.50;99.90
981;DHT22;479;53.514;9.994;2023-04-24T03:01:52;11.50;99.90
981;DHT22;479;53.514;9.994;2023-04-24T03:04:19;11.50;99.90
981;DHT22;479;53.514;9.994;2023-04-24T03:06:49;11.50;99.90
981;DHT22;479;53.514;9.994;2023-04-24T03:09:19;11.40;99.90
981;DHT22;479;53.514;9.994;2023-04-24T03:11:47;11.50;99.90
981;DHT22;479;53.514;9.994;2023-04-24T03:14:14;11.40;99.90
981;DHT22;479;53.514;9.994;2023-04-24T03:16:41;11.40;99.90
981;DHT22;479;53.514;9.994;2023-04-24T03:19:08;11.40;99.90
981;DHT22;479;53.514;9.994;2023-04-24T03:21:44;11.40;99.90
981;DHT22;479;53.514;9.994;2023-04-24T03:24:12;11.40;99.90
981;DHT22;479;53.514;9.994;2023-04-24T03:26:39;11.30;99.90
981;DHT22;479;53.514;9.994;2023-04-24T03:29:27;11.30;99.90
981;DHT22;479;53.514;9.994;2023-04-24T03:31:54;11.30;99.90
981;DHT22;479;53.514;9.994;2023-04-24T03:34:22;11.20;99.90
981;DHT22;479;53.514;9.994;2023-04-24T03:36:49;11.20;99.90
981;DHT22;479;53.514;9.994;2023-04-24T03:39:17;11.20;99.90
981;DHT22;479;53.514;9.994;2023-04-24T03:41:50;11.20;99.90
981;DHT22;479;53.514;9.994;2023-04-24T03:44:22;11.10;99.90
981;DHT22;479;53.514;9.994;2023-04-24T03:46:50;11.10;99.90
981;DHT22;479;53.514;9.994;2023-04-24T03:49:19;11.10;99.90
981;DHT22;479;53.514;9.994;2023-04-24T03:51:47;11.10;99.90
981;DHT22;479;53.514;9.994;2023-04-24T03:54:22;11.10;99.90
981;DHT22;479;53.514;9.994;2023-04-24T03:56:51;11.10;99.90
981;DHT22;479;53.514;9.994;2023-04-24T03:59:18;11.10;99.90
981;DHT22;479;53.514;9.994;2023-04-24T04:01:50;11.10;99.90
981;DHT22;479;53.514;9.994;2023-04-24T04:04:17;11.10;99.90
981;DHT22;479;53.514;9.994;2023-04-24T04:06:44;11.10;99.90
981;DHT22;479;53.514;9.994;2023-04-24T04:09:12;11.00;99.90
981;DHT22;479;53.514;9.994;2023-04-24T04:11:40;11.00;99.90
981;DHT22;479;53.514;9.994;2023-04-24T04:14:07;11.00;99.90
981;DHT22;479;53.514;9.994;2023-04-24T04:16:36;11.00;99.90
981;DHT22;479;53.514;9.994;2023-04-24T04:19:05;11.00;99.90
981;DHT22;479;53.514;9.994;2023-04-24T04:21:32;11.00;99.90
981;DHT22;479;53.514;9.994;2023-04-24T04:24:12;11.00;99.90
981;DHT22;479;53.514;9.994;2023-04-24T04:26:44;11.00;99.90
981;DHT22;479;53.514;9.994;2023-04-24T04:29:16;11.00;99.90
981;DHT22;479;53.514;9.994;2023-04-24T04:31:44;11.10;99.90
981;DHT22;479;53.514;9.994;2023-04-24T04:34:12;11.10;99.90
981;DHT22;479;53.514;9.994;2023-04-24T04:36:43;11.10;99.90
981;DHT22;479;53.514;9.994;2023-04-24T04:39:26;11.10;99.90
981;DHT22;479;53.514;9.994;2023-04-24T04:42:01;11.10;99.90
981;DHT22;479;53.514;9.994;2023-04-24T04:44:36;11.10;99.90
981;DHT22;479;53.514;9.994;2023-04-24T04:47:05;11.10;99.90
981;DHT22;479;53.514;9.994;2023-04-24T04:49:34;11.20;99.90
981;DHT22;479;53.514;9.994;2023-04-24T04:52:04;11.30;99.90
981;DHT22;479;53.514;9.994;2023-04-24T04:54:31;11.40;99.90
981;DHT22;479;53.514;9.994;2023-04-24T04:56:58;11.50;99.90
981;DHT22;479;53.514;9.994;2023-04-24T04:59:27;11.40;99.90
981;DHT22;479;53.514;9.994;2023-04-24T05:02:01;11.40;99.90
981;DHT22;479;53.514;9.994;2023-04-24T05:04:28;11.40;99.90
981;DHT22;479;53.514;9.994;2023-04-24T05:06:56;11.50;99.90
981;DHT22;479;53.514;9.994;2023-04-24T05:09:24;11.40;99.90
981;DHT22;479;53.514;9.994;2023-04-24T05:11:55;11.50;99.90
981;DHT22;479;53.514;9.994;2023-04-24T05:14:23;11.50;99.90
981;DHT22;479;53.514;9.994;2023-04-24T05:16:52;11.40;99.90
981;DHT22;479;53.514;9.994;2023-04-24T05:19:23;11.50;99.90
981;DHT22;479;53.514;9.994;2023-04-24T05:21:50;11.50;99.90
981;DHT22;479;53.514;9.994;2023-04-24T05:24:17;11.40;99.90
981;DHT22;479;53.514;9.994;2023-04-24T05:26:53;11.50;99.90
981;DHT22;479;53.514;9.994;2023-04-24T05:29:25;11.60;99.90
981;DHT22;479;53.514;9.994;2023-04-24T05:31:54;11.70;99.90
981;DHT22;479;53.514;9.994;2023-04-24T05:34:22;11.70;99.90
981;DHT22;479;53.514;9.994;2023-04-24T05:36:53;11.60;99.90
981;DHT22;479;53.514;9.994;2023-04-24T05:39:20;11.70;99.90
981;DHT22;479;53.514;9.994;2023-04-24T05:41:47;11.70;99.90
981;DHT22;479;53.514;9.994;2023-04-24T05:44:14;11.80;99.90
981;DHT22;479;53.514;9.994;2023-04-24T05:46:41;11.80;99.90
981;DHT22;479;53.514;9.994;2023-04-24T05:49:11;11.80;99.90
981;DHT22;479;53.514;9.994;2023-04-24T05:51:38;11.80;99.90
981;DHT22;479;53.514;9.994;2023-04-24T05:54:05;11.90;99.90
981;DHT22;479;53.514;9.994;2023-04-24T05:56:32;12.00;99.90
981;DHT22;479;53.514;9.994;2023-04-24T05:59:02;12.00;99.90
981;DHT22;479;53.514;9.994;2023-04-24T06:01:29;12.10;99.90
981;DHT22;479;53.514;9.994;2023-04-24T06:04:05;12.20;99.90
981;DHT22;479;53.514;9.994;2023-04-24T06:06:34;12.20;99.90
981;DHT22;479;53.514;9.994;2023-04-24T06:09:02;12.20;99.90
981;DHT22;479;53.514;9.994;2023-04-24T06:11:30;12.50;99.90
981;DHT22;479;53.514;9.994;2023-04-24T06:13:58;13.20;99.90
981;DHT22;479;53.514;9.994;2023-04-24T06:16:37;13.80;99.90
981;DHT22;479;53.514;9.994;2023-04-24T06:19:13;14.20;99.90
981;DHT22;479;53.514;9.994;2023-04-24T06:21:42;14.50;99.90
981;DHT22;479;53.514;9.994;2023-04-24T06:24:09;15.10;99.90
981;DHT22;479;53.514;9.994;2023-04-24T06:26:36;14.90;99.90
981;DHT22;479;53.514;9.994;2023-04-24T06:29:03;15.10;99.90
981;DHT22;479;53.514;9.994;2023-04-24T06:31:30;15.50;99.90
981;DHT22;479;53.514;9.994;2023-04-24T06:34:02;15.80;99.90
981;DHT22;479;53.514;9.994;2023-04-24T06:36:29;15.90;99.90
981;DHT22;479;53.514;9.994;2023-04-24T06:38:58;15.70;99.90
981;DHT22;479;53.514;9.994;2023-04-24T06:41:25;15.80;99.90
981;DHT22;479;53.514;9.994;2023-04-24T06:43:52;15.80;99.90
981;DHT22;479;53.514;9.994;2023-04-24T06:46:19;15.80;99.90
981;DHT22;479;53.514;9.994;2023-04-24T06:48:47;15.80;99.90
981;DHT22;479;53.514;9.994;2023-04-24T06:51:14;15.90;99.90
981;DHT22;479;53.514;9.994;2023-04-24T06:53:44;16.40;99.90
981;DHT22;479;53.514;9.994;2023-04-24T06:56:13;16.70;99.90
981;DHT22;479;53.514;9.994;2023-04-24T06:58:39;16.80;99.90
981;DHT22;479;53.514;9.994;2023-04-24T07:01:06;16.90;99.90
981;DHT22;479;53.514;9.994;2023-04-24T07:03:33;16.80;99.90
981;DHT22;479;53.514;9.994;2023-04-24T07:06:00;15.90;99.90
981;DHT22;479;53.514;9.994;2023-04-24T07:08:29;15.70;99.90
981;DHT22;479;53.514;9.994;2023-04-24T07:10:57;16.10;99.90
981;DHT22;479;53.514;9.994;2023-04-24T07:13:26;15.80;99.90
981;DHT22;479;53.514;9.994;2023-04-24T07:15:53;15.90;99.90
981;DHT22;479;53.514;9.994;2023-04-24T07:18:22;15.90;99.90
981;DHT22;479;53.514;9.994;2023-04-24T07:20:49;16.50;99.90
981;DHT22;479;53.514;9.994;2023-04-24T07:23:17;16.20;99.90
981;DHT22;479;53.514;9.994;2023-04-24T07:25:44;16.40;99.90
981;DHT22;479;53.514;9.994;2023-04-24T07:28:10;16.50;99.90
981;DHT22;479;53.514;9.994;2023-04-24T07:30:39;16.10;99.90
981;DHT22;479;53.514;9.994;2023-04-24T07:33:06;16.00;99.90
981;DHT22;479;53.514;9.994;2023-04-24T07:35:33;15.40;99.90
981;DHT22;479;53.514;9.994;2023-04-24T07:38:00;15.30;99.90
981;DHT22;479;53.514;9.994;2023-04-24T07:40:27;16.10;99.90
981;DHT22;479;53.514;9.994;2023-04-24T07:42:54;16.80;99.00
981;DHT22;479;53.514;9.994;2023-04-24T07:45:21;16.60;96.20
981;DHT22;479;53.514;9.994;2023-04-24T07:47:50;16.10;97.30
981;DHT22;479;53.514;9.994;2023-04-24T07:50:17;15.90;97.90
981;DHT22;479;53.514;9.994;2023-04-24T07:52:44;16.00;99.90
981;DHT22;479;53.514;9.994;2023-04-24T07:55:11;16.70;98.30
981;DHT22;479;53.514;9.994;2023-04-24T07:57:38;16.30;96.00
981;DHT22;479;53.514;9.994;2023-04-24T08:00:06;16.50;96.60
981;DHT22;479;53.514;9.994;2023-04-24T08:02:39;16.10;96.60
981;DHT22;479;53.514;9.994;2023-04-24T08:05:08;15.90;97.60
981;DHT22;479;53.514;9.994;2023-04-24T08:07:35;15.50;98.40
981;DHT22;479;53.514;9.994;2023-04-24T08:10:03;15.30;99.90
981;DHT22;479;53.514;9.994;2023-04-24T08:12:30;15.40;99.90
981;DHT22;479;53.514;9.994;2023-04-24T08:14:57;15.40;99.90
981;DHT22;479;53.514;9.994;2023-04-24T08:17:24;15.20;99.90
981;DHT22;479;53.514;9.994;2023-04-24T08:19:51;15.10;99.90
981;DHT22;479;53.514;9.994;2023-04-24T08:22:20;15.00;99.90
981;DHT22;479;53.514;9.994;2023-04-24T08:24:47;15.10;99.90
981;DHT22;479;53.514;9.994;2023-04-24T08:27:14;15.00;99.90
981;DHT22;479;53.514;9.994;2023-04-24T08:29:41;15.20;99.90
981;DHT22;479;53.514;9.994;2023-04-24T08:32:08;15.20;99.90
981;DHT22;479;53.514;9.994;2023-04-24T08:34:35;14.80;99.90
981;DHT22;479;53.514;9.994;2023-04-24T08:37:02;14.80;99.90
981;DHT22;479;53.514;9.994;2023-04-24T08:39:31;14.60;99.90
981;DHT22;479;53.514;9.994;2023-04-24T08:42:00;14.40;99.90
981;DHT22;479;53.514;9.994;2023-04-24T08:44:32;14.50;99.90
981;DHT22;479;53.514;9.994;2023-04-24T08:46:59;14.40;99.90
981;DHT22;479;53.514;9.994;2023-04-24T08:49:28;14.60;99.90
981;DHT22;479;53.514;9.994;2023-04-24T08:51:55;14.50;99.90
981;DHT22;479;53.514;9.994;2023-04-24T08:54:23;14.70;99.90
981;DHT22;479;53.514;9.994;2023-04-24T08:56:53;14.90;99.90
981;DHT22;479;53.514;9.994;2023-04-24T08:59:21;14.90;99.90
981;DHT22;479;53.514;9.994;2023-04-24T09:01:50;15.00;99.90
981;DHT22;479;53.514;9.994;2023-04-24T09:04:18;14.90;99.90
981;DHT22;479;53.514;9.994;2023-04-24T09:06:48;15.50;99.90
981;DHT22;479;53.514;9.994;2023-04-24T09:09:16;15.70;98.90
981;DHT22;479;53.514;9.994;2023-04-24T09:11:44;15.40;98.80
981;DHT22;479;53.514;9.994;2023-04-24T09:14:13;15.00;99.90
981;DHT22;479;53.514;9.994;2023-04-24T09:16:40;14.80;99.90
981;DHT22;479;53.514;9.994;2023-04-24T09:19:07;14.70;99.90
981;DHT22;479;53.514;9.994;2023-04-24T09:21:34;14.50;99.90
981;DHT22;479;53.514;9.994;2023-04-24T09:24:04;14.60;99.90
981;DHT22;479;53.514;9.994;2023-04-24T09:26:31;14.40;99.90
981;DHT22;479;53.514;9.994;2023-04-24T09:28:59;14.20;99.90
981;DHT22;479;53.514;9.994;2023-04-24T09:31:29;14.40;99.90
981;DHT22;479;53.514;9.994;2023-04-24T09:33:58;14.50;99.90
981;DHT22;479;53.514;9.994;2023-04-24T09:36:29;14.50;99.90
981;DHT22;479;53.514;9.994;2023-04-24T09:38:59;14.40;99.90
981;DHT22;479;53.514;9.994;2023-04-24T09:41:26;14.30;99.90
981;DHT22;479;53.514;9.994;2023-04-24T09:43:54;14.40;99.90
981;DHT22;479;53.514;9.994;2023-04-24T09:46:30;14.40;99.90
981;DHT22;479;53.514;9.994;2023-04-24T09:49:07;14.40;99.90
981;DHT22;479;53.514;9.994;2023-04-24T09:51:36;14.20;99.90
981;DHT22;479;53.514;9.994;2023-04-24T09:54:03;14.20;99.90
981;DHT22;479;53.514;9.994;2023-04-24T09:56:34;14.10;99.90
981;DHT22;479;53.514;9.994;2023-04-24T09:59:05;14.20;99.90
981;DHT22;479;53.514;9.994;2023-04-24T10:01:34;14.00;99.90
981;DHT22;479;53.514;9.994;2023-04-24T10:04:01;14.20;99.90
981;DHT22;479;53.514;9.994;2023-04-24T10:06:33;14.30;99.90
981;DHT22;479;53.514;9.994;2023-04-24T10:09:01;14.40;99.90
981;DHT22;479;53.514;9.994;2023-04-24T10:11:30;14.20;99.90
981;DHT22;479;53.514;9.994;2023-04-24T10:13:57;14.20;99.90
981;DHT22;479;53.514;9.994;2023-04-24T10:16:25;14.20;99.90
981;DHT22;479;53.514;9.994;2023-04-24T10:18:55;14.30;99.90
981;DHT22;479;53.514;9.994;2023-04-24T10:21:26;14.50;99.90
981;DHT22;479;53.514;9.994;2023-04-24T10:23:53;14.70;99.90
981;DHT22;479;53.514;9.994;2023-04-24T10:26:21;14.50;99.90
981;DHT22;479;53.514;9.994;2023-04-24T10:28:50;14.40;99.90
981;DHT22;479;53.514;9.994;2023-04-24T10:31:17;14.30;99.90
981;DHT22;479;53.514;9.994;2023-04-24T10:33:45;14.10;99.90
981;DHT22;479;53.514;9.994;2023-04-24T10:36:14;13.80;99.90
981;DHT22;479;53.514;9.994;2023-04-24T10:38:43;13.80;99.90
981;DHT22;479;53.514;9.994;2023-04-24T10:41:14;13.60;99.90
981;DHT22;479;53.514;9.994;2023-04-24T10:43:45;13.70;99.90
981;DHT22;479;53.514;9.994;2023-04-24T10:46:19;13.70;99.90
981;DHT22;479;53.514;9.994;2023-04-24T10:48:53;13.60;99.90
981;DHT22;479;53.514;9.994;2023-04-24T10:51:22;13.80;99.90
981;DHT22;479;53.514;9.994;2023-04-24T10:53:50;13.90;99.90
981;DHT22;479;53.514;9.994;2023-04-24T10:56:17;14.60;99.90
981;DHT22;479;53.514;9.994;2023-04-24T10:58:49;15.20;99.90
981;DHT22;479;53.514;9.994;2023-04-24T11:01:24;15.50;99.90
981;DHT22;479;53.514;9.994;2023-04-24T11:03:55;15.70;99.90
981;DHT22;479;53.514;9.994;2023-04-24T11:06:29;15.70;99.90
981;DHT22;479;53.514;9.994;2023-04-24T11:09:05;16.00;99.30
981;DHT22;479;53.514;9.994;2023-04-24T11:11:34;16.30;97.10
981;DHT22;479;53.514;9.994;2023-04-24T11:14:08;16.30;97.10
981;DHT22;479;53.514;9.994;2023-04-24T11:16:51;15.90;96.70
981;DHT22;479;53.514;9.994;2023-04-24T11:19:21;15.70;97.10
981;DHT22;479;53.514;9.994;2023-04-24T11:21:58;15.30;98.00
981;DHT22;479;53.514;9.994;2023-04-24T11:24:29;15.20;99.00
981;DHT22;479;53.514;9.994;2023-04-24T11:26:57;14.80;99.30
981;DHT22;479;53.514;9.994;2023-04-24T11:29:39;14.50;99.90
981;DHT22;479;53.514;9.994;2023-04-24T11:32:23;14.50;99.90
981;DHT22;479;53.514;9.994;2023-04-24T11:34:52;15.00;99.90
981;DHT22;479;53.514;9.994;2023-04-24T11:37:21;15.40;99.90
981;DHT22;479;53.514;9.994;2023-04-24T11:39:51;15.40;97.70
981;DHT22;479;53.514;9.994;2023-04-24T11:42:18;15.30;97.10
981;DHT22;479;53.514;9.994;2023-04-24T11:44:46;15.30;96.50
981;DHT22;479;53.514;9.994;2023-04-24T11:47:14;15.40;96.40
981;DHT22;479;53.514;9.994;2023-04-24T11:49:41;15.20;96.30
981;DHT22;479;53.514;9.994;2023-04-24T11:52:07;15.30;95.10
981;DHT22;479;53.514;9.994;2023-04-24T11:54:36;15.30;95.80
981;DHT22;479;53.514;9.994;2023-04-24T11:57:04;15.50;95.40
981;DHT22;479;53.514;9.994;2023-04-24T11:59:35;15.40;95.40
981;DHT22;479;53.514;9.994;2023-04-24T12:02:02;15.50;94.90
981;DHT22;479;53.514;9.994;2023-04-24T12:04:38;15.40;95.20
981;DHT22;479;53.514;9.994;2023-04-24T12:07:06;15.30;94.10
981;DHT22;479;53.514;9.994;2023-04-24T12:09:42;15.30;94.00
981;DHT22;479;53.514;9.994;2023-04-24T12:12:11;15.50;93.90
981;DHT22;479;53.514;9.994;2023-04-24T12:14:45;15.60;93.70
981;DHT22;479;53.514;9.994;2023-04-24T12:17:12;15.50;94.10
981;DHT22;479;53.514;9.994;2023-04-24T12:19:45;15.40;93.50
981;DHT22;479;53.514;9.994;2023-04-24T12:22:12;15.40;93.60
981;DHT22;479;53.514;9.994;2023-04-24T12:24:59;15.30;93.50
981;DHT22;479;53.514;9.994;2023-04-24T12:27:30;15.40;94.10
981;DHT22;479;53.514;9.994;2023-04-24T12:29:59;15.40;94.40
981;DHT22;479;53.514;9.994;2023-04-24T12:32:27;15.20;94.50
981;DHT22;479;53.514;9.994;2023-04-24T12:34:55;15.00;94.30
981;DHT22;479;53.514;9.994;2023-04-24T12:37:23;15.00;94.80
981;DHT22;479;53.514;9.994;2023-04-24T12:40:06;14.90;95.50
981;DHT22;479;53.514;9.994;2023-04-24T12:42:35;14.80;97.00
981;DHT22;479;53.514;9.994;2023-04-24T12:45:04;14.70;96.50
981;DHT22;479;53.514;9.994;2023-04-24T12:47:31;14.60;97.30
981;DHT22;479;53.514;9.994;2023-04-24T12:49:59;14.60;98.90
981;DHT22;479;53.514;9.994;2023-04-24T12:52:27;14.50;98.60
981;DHT22;479;53.514;9.994;2023-04-24T12:54:56;14.20;98.80
981;DHT22;479;53.514;9.994;2023-04-24T12:57:25;13.90;99.90
981;DHT22;479;53.514;9.994;2023-04-24T12:59:53;13.80;99.90
981;DHT22;479;53.514;9.994;2023-04-24T13:02:20;13.70;99.90
981;DHT22;479;53.514;9.994;2023-04-24T13:04:48;13.60;99.90
981;DHT22;479;53.514;9.994;2023-04-24T13:07:16;13.40;99.90
981;DHT22;479;53.514;9.994;2023-04-24T13:09:43;13.40;99.90
981;DHT22;479;53.514;9.994;2023-04-24T13:12:11;13.50;99.90
981;DHT22;479;53.514;9.994;2023-04-24T13:14:39;13.50;99.90
981;DHT22;479;53.514;9.994;2023-04-24T13:17:06;13.50;99.90
981;DHT22;479;53.514;9.994;2023-04-24T13:19:38;13.50;99.90
981;DHT22;479;53.514;9.994;2023-04-24T13:22:06;13.50;99.90
981;DHT22;479;53.514;9.994;2023-04-24T13:24:33;13.40;99.90
981;DHT22;479;53.514;9.994;2023-04-24T13:27:00;13.40;99.90
981;DHT22;479;53.514;9.994;2023-04-24T13:29:28;13.40;99.90
981;DHT22;479;53.514;9.994;2023-04-24T13:31:56;13.30;99.90
981;DHT22;479;53.514;9.994;2023-04-24T13:34:23;13.30;99.90
981;DHT22;479;53.514;9.994;2023-04-24T13:36:52;13.40;99.90
981;DHT22;479;53.514;9.994;2023-04-24T13:39:19;13.40;99.90
981;DHT22;479;53.514;9.994;2023-04-24T13:41:46;13.40;99.90
981;DHT22;479;53.514;9.994;2023-04-24T13:44:14;13.50;99.90
981;DHT22;479;53.514;9.994;2023-04-24T13:46:41;13.40;99.90
981;DHT22;479;53.514;9.994;2023-04-24T13:49:10;13.50;99.90
981;DHT22;479;53.514;9.994;2023-04-24T13:51:38;13.40;99.90
981;DHT22;479;53.514;9.994;2023-04-24T13:54:05;13.40;99.90
981;DHT22;479;53.514;9.994;2023-04-24T13:56:32;13.40;99.90
981;DHT22;479;53.514;9.994;2023-04-24T13:59:00;13.40;99.90
981;DHT22;479;53.514;9.994;2023-04-24T14:01:27;13.40;99.90
981;DHT22;479;53.514;9.994;2023-04-24T14:03:54;13.40;99.90
981;DHT22;479;53.514;9.994;2023-04-24T14:06:23;13.30;99.90
981;DHT22;479;53.514;9.994;2023-04-24T14:08:50;13.30;99.90
981;DHT22;479;53.514;9.994;2023-04-24T14:11:17;13.20;99.90
981;DHT22;479;53.514;9.994;2023-04-24T14:13:45;13.30;99.90
981;DHT22;479;53.514;9.994;2023-04-24T14:16:13;13.40;99.90
981;DHT22;479;53.514;9.994;2023-04-24T14:18:40;13.40;99.90
981;DHT22;479;53.514;9.994;2023-04-24T14:21:07;13.60;99.90
981;DHT22;479;53.514;9.994;2023-04-24T14:23:36;13.30;99.90
981;DHT22;479;53.514;9.994;2023-04-24T14:26:03;13.50;99.90
981;DHT22;479;53.514;9.994;2023-04-24T14:28:29;13.40;99.90
981;DHT22;479;53.514;9.994;2023-04-24T14:30:56;13.30;99.90
981;DHT22;479;53.514;9.994;2023-04-24T14:33:23;13.30;99.90
981;DHT22;479;53.514;9.994;2023-04-24T14:35:50;13.30;99.90
981;DHT22;479;53.514;9.994;2023-04-24T14:38:17;13.40;99.90
981;DHT22;479;53.514;9.994;2023-04-24T14:40:45;13.20;99.90
981;DHT22;479;53.514;9.994;2023-04-24T14:43:12;13.20;99.90
981;DHT22;479;53.514;9.994;2023-04-24T14:45:39;13.00;99.90
981;DHT22;479;53.514;9.994;2023-04-24T14:48:07;12.90;99.90
981;DHT22;479;53.514;9.994;2023-04-24T14:50:34;12.70;99.90
981;DHT22;479;53.514;9.994;2023-04-24T14:53:01;12.60;99.90
981;DHT22;479;53.514;9.994;2023-04-24T14:55:28;12.50;99.90
981;DHT22;479;53.514;9.994;2023-04-24T14:57:56;12.40;99.90
981;DHT22;479;53.514;9.994;2023-04-24T15:00:23;12.40;99.90
981;DHT22;479;53.514;9.994;2023-04-24T15:02:50;12.20;99.90
981;DHT22;479;53.514;9.994;2023-04-24T15:05:17;12.00;99.90
981;DHT22;479;53.514;9.994;2023-04-24T15:07:44;12.00;99.90
981;DHT22;479;53.514;9.994;2023-04-24T15:10:11;11.80;99.90
981;DHT22;479;53.514;9.994;2023-04-24T15:12:38;11.80;99.90
981;DHT22;479;53.514;9.994;2023-04-24T15:15:08;11.70;99.90
981;DHT22;479;53.514;9.994;2023-04-24T15:17:35;11.60;99.90
981;DHT22;479;53.514;9.994;2023-04-24T15:20:03;11.60;99.90
981;DHT22;479;53.514;9.994;2023-04-24T15:22:32;11.60;99.90
981;DHT22;479;53.514;9.994;2023-04-24T15:24:58;11.50;99.90
981;DHT22;479;53.514;9.994;2023-04-24T15:27:26;11.50;99.90
981;DHT22;479;53.514;9.994;2023-04-24T15:29:53;11.60;99.90
981;DHT22;479;53.514;9.994;2023-04-24T15:32:22;11.60;99.90
981;DHT22;479;53.514;9.994;2023-04-24T15:34:48;11.60;99.90
981;DHT22;479;53.514;9.994;2023-04-24T15:37:15;11.60;99.90
981;DHT22;479;53.514;9.994;2023-04-24T15:39:44;11.60;99.90
981;DHT22;479;53.514;9.994;2023-04-24T15:42:11;11.60;99.90
981;DHT22;479;53.514;9.994;2023-04-24T15:44:38;11.70;99.90
981;DHT22;479;53.514;9.994;2023-04-24T15:47:05;11.80;99.90
981;DHT22;479;53.514;9.994;2023-04-24T15:49:34;11.70;99.90
981;DHT22;479;53.514;9.994;2023-04-24T15:52:01;11.40;99.90
981;DHT22;479;53.514;9.994;2023-04-24T15:54:28;11.30;99.90
981;DHT22;479;53.514;9.994;2023-04-24T15:56:55;11.00;99.90
981;DHT22;479;53.514;9.994;2023-04-24T15:59:22;11.00;99.90
981;DHT22;479;53.514;9.994;2023-04-24T16:01:50;10.90;99.90
981;DHT22;479;53.514;9.994;2023-04-24T16:04:17;10.70;99.90
981;DHT22;479;53.514;9.994;2023-04-24T16:06:45;10.60;99.90
981;DHT22;479;53.514;9.994;2023-04-24T16:09:12;10.60;99.90
981;DHT22;479;53.514;9.994;2023-04-24T16:11:39;10.40;99.90
981;DHT22;479;53.514;9.994;2023-04-24T16:14:07;10.50;99.90
981;DHT22;479;53.514;9.994;2023-04-24T16:16:34;10.40;99.90
981;DHT22;479;53.514;9.994;2023-04-24T16:19:01;10.50;99.90
981;DHT22;479;53.514;9.994;2023-04-24T16:21:28;10.50;99.90
981;DHT22;479;53.514;9.994;2023-04-24T16:23:57;10.40;99.90
981;DHT22;479;53.514;9.994;2023-04-24T16:26:25;10.40;99.90
981;DHT22;479;53.514;9.994;2023-04-24T16:28:52;10.40;99.90
981;DHT22;479;53.514;9.994;2023-04-24T16:31:20;10.30;99.90
981;DHT22;479;53.514;9.994;2023-04-24T16:33:47;10.20;99.90
981;DHT22;479;53.514;9.994;2023-04-24T16:36:14;10.20;99.90
981;DHT22;479;53.514;9.994;2023-04-24T16:38:41;10.10;99.90
981;DHT22;479;53.514;9.994;2023-04-24T16:41:09;10.10;99.90
981;DHT22;479;53.514;9.994;2023-04-24T16:43:36;10.00;99.90